Time;durP1;ratioP1;P1;durP2;ratioP2;P2;SDS_P1;SDS_P2;PMS_P1;PMS_P2;Temp;Humidity;BMP_temperature;BMP_pressure;BME280_temperature;BME280_humidity;BME280_pressure;Samples;Min_cycle;Max_cycle;Signal;HPM_P1;HPM_P2
2022/06/01 00:02:08;;;;;;;13.30;4.40;;;11.50;99.90;;;;;;20680673;28;20502;-40
2022/06/01 00:12:11;;;;;;;6.25;4.28;;;11.50;99.90;;;;;;20696292;28;22200;-40
2022/06/01 00:22:12;;;;;;;8.38;4.25;;;11.50;99.90;;;;;;20710467;28;20037;-41
2022/06/01 00:32:14;;;;;;;10.13;4.10;;;11.50;99.90;;;;;;20721888;28;20050;-40
2022/06/01 00:42:19;;;;;;;7.50;3.58;;;11.40;99.90;;;;;;20709015;28;20037;-40
2022/06/01 00:52:35;;;;;;;7.28;3.33;;;11.40;99.90;;;;;;20725576;28;20041;-40
2022/06/01 01:02:37;;;;;;;4.43;2.05;;;11.30;99.90;;;;;;20692128;28;20037;-40
2022/06/01 01:23:21;;;;;;;3.72;1.63;;;11.00;99.90;;;;;;20690120;28;21600;-41
2022/06/01 01:33:26;;;;;;;1.98;0.73;;;11.00;99.90;;;;;;20687015;28;20477;-41
2022/06/01 01:43:27;;;;;;;0.98;0.50;;;10.80;99.90;;;;;;20599204;28;20038;-40
2022/06/01 01:53:32;;;;;;;3.58;1.77;;;10.70;99.90;;;;;;20606848;28;20041;-40
2022/06/01 02:03:39;;;;;;;3.35;1.40;;;10.70;99.90;;;;;;20608346;28;20053;-40
2022/06/01 02:13:41;;;;;;;1.88;1.02;;;10.70;99.90;;;;;;20679896;28;20397;-41
2022/06/01 02:23:42;;;;;;;2.00;1.17;;;10.70;99.90;;;;;;20708412;28;20049;-41
2022/06/01 02:33:46;;;;;;;2.03;1.27;;;10.70;99.90;;;;;;20726111;28;20045;-41
2022/06/01 02:43:49;;;;;;;3.55;1.50;;;10.60;99.90;;;;;;20713752;28;20054;-41
2022/06/01 02:53:50;;;;;;;3.58;1.60;;;10.60;99.90;;;;;;20718055;28;20049;-41
2022/06/01 03:03:51;;;;;;;4.38;1.65;;;10.50;99.90;;;;;;20720600;28;20049;-39
2022/06/01 03:13:52;;;;;;;1.90;1.05;;;10.50;99.90;;;;;;20701240;28;20080;-40
2022/06/01 03:23:55;;;;;;;2.90;1.20;;;10.50;99.90;;;;;;20647884;28;20498;-40
2022/06/01 03:33:57;;;;;;;1.80;1.15;;;10.60;99.90;;;;;;20682452;28;20686;-40
2022/06/01 03:54:18;;;;;;;3.00;1.42;;;10.40;99.90;;;;;;20649805;28;20108;-40
2022/06/01 04:04:19;;;;;;;2.85;1.48;;;10.30;99.90;;;;;;20634200;28;20065;-40
2022/06/01 04:14:21;;;;;;;3.65;2.05;;;10.30;99.90;;;;;;20618856;28;20038;-40
2022/06/01 04:24:31;;;;;;;2.92;1.80;;;10.30;99.90;;;;;;20610035;28;20237;-40
2022/06/01 04:34:32;;;;;;;4.95;2.33;;;10.30;99.90;;;;;;20623528;28;20046;-40
2022/06/01 04:44:34;;;;;;;4.00;1.73;;;10.40;99.90;;;;;;20648092;28;20171;-40
2022/06/01 04:54:35;;;;;;;3.00;1.67;;;10.50;99.90;;;;;;20700184;28;20068;-40
2022/06/01 05:04:36;;;;;;;1.70;0.70;;;10.60;99.90;;;;;;20694037;28;20057;-40
2022/06/01 05:14:37;;;;;;;1.10;0.50;;;10.70;99.90;;;;;;20678390;28;20385;-40
2022/06/01 05:24:38;;;;;;;1.25;0.57;;;10.60;99.90;;;;;;20681330;28;20168;-40
2022/06/01 05:34:39;;;;;;;2.30;1.15;;;10.60;99.90;;;;;;20685558;28;20038;-40
2022/06/01 05:44:40;;;;;;;1.65;0.73;;;10.80;99.90;;;;;;20677275;28;20048;-40
2022/06/01 05:54:41;;;;;;;0.90;0.60;;;10.80;99.90;;;;;;20641389;28;20057;-40
2022/06/01 06:04:42;;;;;;;1.77;0.93;;;11.00;99.90;;;;;;20617030;28;20142;-40
2022/06/01 06:14:44;;;;;;;2.45;0.60;;;11.20;99.90;;;;;;20632277;28;20080;-40
2022/06/01 06:24:45;;;;;;;2.15;0.80;;;11.40;99.90;;;;;;20697093;28;20053;-40
2022/06/01 06:34:47;;;;;;;1.80;1.10;;;11.70;99.90;;;;;;20700554;28;20041;-40
2022/06/01 06:44:48;;;;;;;1.27;0.60;;;12.30;99.90;;;;;;20728017;28;20637;-40
2022/06/01 06:54:49;;;;;;;3.20;0.98;;;12.70;99.90;;;;;;20699723;28;20544;-40
2022/06/01 07:04:50;;;;;;;3.33;0.55;;;12.80;99.90;;;;;;20709290;28;20065;-40
2022/06/01 07:14:52;;;;;;;2.03;0.80;;;12.90;99.90;;;;;;20711332;28;20038;-40
2022/06/01 07:24:53;;;;;;;1.45;0.50;;;12.90;99.90;;;;;;20712754;28;20060;-40
2022/06/01 07:34:54;;;;;;;1.73;0.60;;;13.10;99.90;;;;;;20704782;28;20045;-40
2022/06/01 07:44:55;;;;;;;1.00;0.40;;;13.10;99.90;;;;;;20638890;28;20446;-40
2022/06/01 07:54:57;;;;;;;3.53;1.10;;;13.40;99.90;;;;;;20636600;28;20705;-40
2022/06/01 08:04:58;;;;;;;1.38;0.40;;;13.60;99.90;;;;;;20638240;28;20069;-40
2022/06/01 08:14:59;;;;;;;0.85;0.30;;;14.00;99.90;;;;;;20683067;28;20167;-40
2022/06/01 08:25:00;;;;;;;0.68;0.20;;;14.20;99.90;;;;;;20705742;28;20320;-40
2022/06/01 08:35:03;;;;;;;1.05;0.57;;;14.40;99.90;;;;;;20714708;28;20034;-40
2022/06/01 08:45:06;;;;;;;0.43;0.20;;;14.20;99.90;;;;;;20679914;28;20199;-40
2022/06/01 08:55:08;;;;;;;1.67;0.47;;;14.70;99.90;;;;;;20685124;28;20045;-40
2022/06/01 09:05:39;;;;;;;0.17;0.10;;;15.00;99.90;;;;;;20641501;28;20450;-40
2022/06/01 09:16:18;;;;;;;1.67;0.30;;;14.60;99.90;;;;;;20634265;28;20034;-40
2022/06/01 09:26:31;;;;;;;0.43;0.20;;;15.00;99.90;;;;;;20682395;28;20715;-40
2022/06/01 09:36:33;;;;;;;1.77;0.20;;;15.30;99.90;;;;;;20695439;28;20521;-40
2022/06/01 09:46:40;;;;;;;0.35;0.30;;;15.90;99.90;;;;;;20638620;28;20407;-40
2022/06/01 09:56:48;;;;;;;0.53;0.10;;;15.90;99.90;;;;;;20701307;28;20064;-40
2022/06/01 10:06:50;;;;;;;;;;;16.40;99.90;;;;;;20715266;28;20437;-40
2022/06/01 10:16:59;;;;;;;0.77;0.20;;;16.30;99.90;;;;;;20731385;28;19920;-40
2022/06/01 10:27:02;;;;;;;0.30;0.20;;;16.60;99.90;;;;;;20723210;28;20060;-40
2022/06/01 10:37:23;;;;;;;1.98;0.50;;;16.70;99.90;;;;;;20716097;28;20041;-40
2022/06/01 10:47:34;;;;;;;2.63;0.30;;;17.00;99.90;;;;;;20721198;28;20459;-41
2022/06/01 10:57:39;;;;;;;0.25;0.10;;;17.30;99.90;;;;;;20674738;28;1367695;-41
2022/06/01 11:08:01;;;;;;;0.50;0.13;;;17.50;99.90;;;;;;20702415;28;20413;-40
2022/06/01 11:18:35;;;;;;;0.75;0.22;;;17.80;99.90;;;;;;20643386;28;20580;-40
2022/06/01 11:29:00;;;;;;;3.05;0.47;;;17.30;99.90;;;;;;20636321;28;20049;-40
2022/06/01 11:39:27;;;;;;;1.30;0.45;;;16.90;99.90;;;;;;20669039;28;20117;-40
2022/06/01 11:50:00;;;;;;;3.95;0.43;;;16.80;99.90;;;;;;20644236;28;21336;-40
2022/06/01 12:00:20;;;;;;;0.40;0.20;;;16.90;99.90;;;;;;20673829;28;20053;-40
2022/06/01 12:10:28;;;;;;;0.57;0.30;;;17.70;99.90;;;;;;20702723;28;21359;-40
2022/06/01 12:20:32;;;;;;;1.15;0.55;;;17.30;99.90;;;;;;20701619;28;21180;-40
2022/06/01 12:30:48;;;;;;;1.17;0.65;;;17.00;99.90;;;;;;20710102;28;20053;-41
2022/06/01 12:41:15;;;;;;;1.40;0.60;;;16.90;99.90;;;;;;20708863;28;20125;-40
2022/06/01 12:51:18;;;;;;;0.90;0.52;;;16.90;99.90;;;;;;20694097;28;20064;-41
2022/06/01 13:01:20;;;;;;;1.75;0.75;;;16.70;99.90;;;;;;20718529;28;20053;-41
2022/06/01 13:11:26;;;;;;;1.10;0.40;;;16.90;99.90;;;;;;20710485;28;20413;-41
2022/06/01 13:21:36;;;;;;;7.18;0.50;;;16.70;99.90;;;;;;20717892;28;20160;-40
2022/06/01 13:31:42;;;;;;;1.55;1.05;;;17.10;99.90;;;;;;20702073;28;20069;-41
2022/06/01 13:41:43;;;;;;;3.53;0.95;;;17.20;99.90;;;;;;20710732;28;21309;-41
2022/06/01 13:51:57;;;;;;;2.40;1.00;;;17.10;99.90;;;;;;20712750;28;20057;-41
2022/06/01 14:02:12;;;;;;;1.45;0.93;;;16.80;99.90;;;;;;20718247;28;20058;-41
2022/06/01 14:12:14;;;;;;;1.63;0.60;;;16.80;99.90;;;;;;20712823;28;20042;-41
2022/06/01 14:22:16;;;;;;;1.38;0.38;;;16.70;99.90;;;;;;20717908;28;20402;-41
2022/06/01 14:32:17;;;;;;;4.80;0.80;;;17.10;99.90;;;;;;20714670;28;20041;-41
2022/06/01 14:42:19;;;;;;;1.27;0.77;;;17.20;99.90;;;;;;20716521;28;20103;-41
2022/06/01 14:52:20;;;;;;;0.68;0.30;;;16.90;99.90;;;;;;20712160;28;20408;-41
2022/06/01 15:02:21;;;;;;;5.90;0.80;;;16.60;99.90;;;;;;20686620;28;20059;-41
2022/06/01 15:12:24;;;;;;;0.45;0.30;;;16.50;99.90;;;;;;20722819;28;20176;-41
2022/06/01 15:22:25;;;;;;;1.30;0.50;;;16.50;99.90;;;;;;20706699;28;20055;-42
2022/06/01 15:42:47;;;;;;;1.20;0.65;;;16.10;99.90;;;;;;20697486;28;20367;-42
2022/06/01 15:52:48;;;;;;;1.08;0.65;;;16.00;99.90;;;;;;20709689;28;20429;-41
2022/06/01 16:02:50;;;;;;;1.02;0.50;;;16.30;99.90;;;;;;20724190;28;20045;-41
2022/06/01 16:12:51;;;;;;;1.42;0.88;;;16.20;99.90;;;;;;20720327;28;20052;-41
2022/06/01 16:22:52;;;;;;;0.63;0.30;;;16.30;99.90;;;;;;20676216;28;21906;-41
2022/06/01 16:32:54;;;;;;;0.75;0.30;;;16.20;99.90;;;;;;20627194;28;20060;-41
2022/06/01 16:43:00;;;;;;;1.50;0.47;;;16.40;99.90;;;;;;20607735;28;20049;-41
2022/06/01 16:53:02;;;;;;;0.50;0.22;;;16.20;99.90;;;;;;20633552;28;20136;-41
2022/06/01 17:03:03;;;;;;;2.00;0.40;;;16.20;99.90;;;;;;20622373;28;20046;-41
2022/06/01 17:13:04;;;;;;;0.35;0.15;;;16.10;99.90;;;;;;20610881;28;20046;-41
2022/06/01 17:23:07;;;;;;;0.60;0.35;;;15.80;99.90;;;;;;20614354;28;20049;-41
2022/06/01 17:33:24;;;;;;;0.55;0.13;;;15.60;99.90;;;;;;20605033;28;20053;-41
2022/06/01 17:43:25;;;;;;;1.08;0.50;;;15.70;99.90;;;;;;20621261;28;21279;-41
2022/06/01 17:53:30;;;;;;;0.90;0.40;;;15.60;99.90;;;;;;20610951;28;20080;-41
2022/06/01 18:03:34;;;;;;;0.50;0.30;;;15.40;99.90;;;;;;20613408;28;20482;-41
2022/06/01 18:13:35;;;;;;;0.50;0.30;;;15.00;99.90;;;;;;20617068;28;20209;-41
2022/06/01 18:23:38;;;;;;;0.75;0.20;;;15.00;99.90;;;;;;20617943;28;20033;-41
2022/06/01 18:33:39;;;;;;;1.15;0.25;;;14.80;99.90;;;;;;20626788;28;20498;-41
2022/06/01 18:43:42;;;;;;;2.03;0.50;;;14.50;99.90;;;;;;20612411;28;20565;-41
2022/06/01 18:53:43;;;;;;;1.58;0.55;;;14.30;99.90;;;;;;20624749;28;21520;-41
2022/06/01 19:03:45;;;;;;;2.17;0.45;;;14.20;99.90;;;;;;20639191;28;20057;-41
2022/06/01 19:13:47;;;;;;;0.50;0.20;;;14.00;99.90;;;;;;20695256;28;20065;-41
2022/06/01 19:23:49;;;;;;;2.92;1.58;;;13.90;99.90;;;;;;20653330;28;20800;-41
2022/06/01 19:33:50;;;;;;;0.90;0.43;;;13.80;99.90;;;;;;20664889;28;20045;-41
2022/06/01 19:44:06;;;;;;;0.77;0.30;;;13.70;99.90;;;;;;20654349;28;20301;-41
2022/06/01 19:54:08;;;;;;;1.85;1.52;;;13.50;99.90;;;;;;20686634;28;20049;-41
2022/06/01 20:04:09;;;;;;;0.80;0.45;;;13.40;99.90;;;;;;20667450;28;21763;-41
2022/06/01 20:14:11;;;;;;;1.92;0.77;;;13.20;99.90;;;;;;20662367;28;20200;-41
2022/06/01 20:24:12;;;;;;;1.33;0.75;;;13.00;99.90;;;;;;20656651;28;20087;-41
2022/06/01 20:34:14;;;;;;;1.83;1.27;;;12.80;99.90;;;;;;20664361;28;20501;-41
2022/06/01 20:44:15;;;;;;;1.67;0.77;;;12.80;99.90;;;;;;20670111;28;20069;-41
2022/06/01 20:54:16;;;;;;;1.55;0.80;;;12.60;99.90;;;;;;20690307;28;20138;-41
2022/06/01 21:04:17;;;;;;;1.30;0.60;;;12.50;99.90;;;;;;20697918;28;20525;-41
2022/06/01 21:14:20;;;;;;;2.45;0.82;;;12.30;99.90;;;;;;20701746;28;20493;-41
2022/06/01 21:24:21;;;;;;;1.10;0.52;;;12.10;99.90;;;;;;20704777;28;20041;-41
2022/06/01 21:34:22;;;;;;;2.38;1.00;;;12.00;99.90;;;;;;20637257;28;20046;-41
2022/06/01 21:44:23;;;;;;;1.60;0.77;;;11.90;99.90;;;;;;20630656;28;20596;-41
2022/06/01 21:54:24;;;;;;;3.38;1.00;;;11.70;99.90;;;;;;20632956;28;20050;-41
2022/06/01 22:04:27;;;;;;;2.22;1.02;;;11.50;99.90;;;;;;20692458;28;20040;-41
2022/06/01 22:14:28;;;;;;;2.08;0.85;;;11.50;99.90;;;;;;20702136;28;20059;-41
2022/06/01 22:24:29;;;;;;;2.42;1.52;;;11.40;99.90;;;;;;20712823;28;20037;-41
2022/06/01 22:37:14;;;;;;;3.15;1.42;;;11.30;99.90;;;;;;20659688;28;20374;-41
2022/06/01 22:44:56;;;;;;;2.90;1.20;;;11.30;99.90;;;;;;20690512;28;20046;-41
2022/06/01 22:55:01;;;;;;;3.15;0.98;;;11.20;99.90;;;;;;20701916;28;20171;-41
2022/06/01 23:05:02;;;;;;;1.55;1.00;;;11.30;99.90;;;;;;20699362;28;20040;-41
2022/06/01 23:15:05;;;;;;;1.95;0.80;;;11.10;99.90;;;;;;20714796;28;20132;-41
2022/06/01 23:25:09;;;;;;;1.92;1.00;;;11.00;99.90;;;;;;20721880;28;20053;-41
2022/06/01 23:35:28;;;;;;;2.25;1.27;;;10.90;99.90;;;;;;20708453;28;20517;-41
2022/06/01 23:46:01;;;;;;;1.80;0.80;;;10.90;99.90;;;;;;20632496;28;20501;-41
2022/06/01 23:56:39;;;;;;;2.83;1.85;;;10.70;99.90;;;;;;20719209;28;20058;-41
